Time;durP1;ratioP1;P1;durP2;ratioP2;P2;SDS_P1;SDS_P2;PMS_P1;PMS_P2;Temp;Humidity;BMP_temperature;BMP_pressure;BME280_temperature;BME280_humidity;BME280_pressure;Samples;Min_cycle;Max_cycle;Signal;HPM_P1;HPM_P2
2023/12/19 00:07:32;;;;;;;63.40;46.15;;;;;;;21.58;57.02;101463.66;20872954;28;20262;-54
2023/12/19 00:17:36;;;;;;;61.05;43.42;;;;;;;21.56;57.07;101454.66;20878883;28;20287;-38
2023/12/19 00:27:38;;;;;;;52.58;38.40;;;;;;;21.50;56.99;101453.16;20866785;28;20722;-54
2023/12/19 00:37:41;;;;;;;49.42;36.05;;;;;;;21.51;57.43;101440.66;20889426;28;20195;-38
2023/12/19 00:47:43;;;;;;;43.45;32.45;;;;;;;21.50;57.43;101458.81;20876889;28;20314;-36
2023/12/19 00:57:46;;;;;;;40.63;29.23;;;;;;;21.50;57.32;101456.00;20896303;28;20200;-39
2023/12/19 01:07:48;;;;;;;35.05;25.98;;;;;;;21.48;57.62;101453.47;20885848;28;20693;-39
2023/12/19 01:17:51;;;;;;;33.47;24.42;;;;;;;21.47;57.38;101442.47;20864613;28;20283;-47
2023/12/19 01:27:54;;;;;;;27.80;20.95;;;;;;;21.44;57.42;101423.31;20883952;28;20518;-38
2023/12/19 01:37:57;;;;;;;25.75;19.02;;;;;;;21.43;57.14;101399.81;20873000;28;20211;-38
2023/12/19 01:47:59;;;;;;;24.15;18.08;;;;;;;21.44;57.25;101378.00;20871109;28;20327;-37
2023/12/19 01:58:02;;;;;;;20.65;15.98;;;;;;;21.38;56.96;101395.16;20869774;28;20294;-38
2023/12/19 02:08:04;;;;;;;20.20;14.50;;;;;;;21.38;56.99;101368.84;20894206;28;20539;-38
2023/12/19 02:18:17;;;;;;;18.23;13.25;;;;;;;21.38;57.01;101361.19;20893538;28;20287;-39
2023/12/19 02:28:20;;;;;;;15.38;12.15;;;;;;;21.39;57.18;101343.03;20891603;28;20230;-41
2023/12/19 02:38:22;;;;;;;14.60;11.30;;;;;;;21.38;56.87;101312.19;20887101;28;20232;-54
2023/12/19 02:48:25;;;;;;;13.30;10.73;;;;;;;21.34;56.83;101300.69;20889043;28;20319;-57
2023/12/19 02:58:27;;;;;;;10.88;8.63;;;;;;;21.33;56.82;101284.88;20873208;28;20200;-39
2023/12/19 03:08:30;;;;;;;10.57;8.23;;;;;;;21.34;56.42;101280.88;20890316;28;20584;-38
2023/12/19 03:18:31;;;;;;;10.05;8.15;;;;;;;21.32;56.83;101271.88;20881058;28;20586;-38
2023/12/19 03:28:37;;;;;;;8.18;6.60;;;;;;;21.34;56.94;101246.91;20869425;28;20576;-37
2023/12/19 03:38:39;;;;;;;8.10;6.50;;;;;;;21.38;57.23;101247.06;20879967;28;20254;-43
2023/12/19 03:48:44;;;;;;;73.22;48.33;;;;;;;21.44;57.14;101236.41;20896107;28;20235;-39
2023/12/19 03:58:46;;;;;;;109.63;74.20;;;;;;;21.76;57.12;101250.06;20884997;28;20203;-39
2023/12/19 04:08:49;;;;;;;132.50;91.05;;;;;;;21.77;56.53;101220.56;20889161;28;20266;-40
2023/12/19 04:18:51;;;;;;;132.55;89.75;;;;;;;21.77;56.35;101206.38;20910546;28;20295;-56
2023/12/19 04:28:54;;;;;;;116.95;82.65;;;;;;;21.75;56.65;101174.72;20889487;28;20234;-37
2023/12/19 04:38:56;;;;;;;107.68;77.03;;;;;;;21.74;56.13;101144.72;20894328;28;20194;-37
2023/12/19 04:48:59;;;;;;;95.93;67.18;;;;;;;21.72;56.03;101124.38;20901091;28;20513;-45
2023/12/19 04:59:01;;;;;;;88.57;62.58;;;;;;;21.74;56.02;101124.88;20909118;28;20553;-59
2023/12/19 05:09:04;;;;;;;113.03;80.22;;;;;;;21.77;56.84;101117.72;20885690;28;20224;-46
2023/12/19 05:19:06;;;;;;;147.98;104.05;;;;;;;21.76;57.67;101111.22;20884812;28;20287;-41
2023/12/19 05:29:09;;;;;;;184.30;130.45;;;;;;;21.73;58.22;101081.56;20864017;28;20211;-39
2023/12/19 05:39:11;;;;;;;121.93;87.95;;;;;;;21.58;58.31;101061.44;20883575;28;20587;-41
2023/12/19 05:49:14;;;;;;;126.13;88.63;;;;;;;21.64;58.66;101066.59;20894247;28;20234;-54
2023/12/19 05:59:16;;;;;;;121.90;85.97;;;;;;;21.60;57.96;101064.78;20906277;28;20196;-40
2023/12/19 06:09:19;;;;;;;119.88;84.07;;;;;;;21.50;58.21;101056.66;20874507;28;20247;-53
2023/12/19 06:19:21;;;;;;;113.97;81.70;;;;;;;21.44;58.09;101041.00;20853280;28;20283;-57
2023/12/19 06:29:25;;;;;;;104.45;77.18;;;;;;;21.33;57.94;101043.38;20879220;28;20216;-54
2023/12/19 06:39:27;;;;;;;103.28;74.30;;;;;;;21.23;58.13;101044.56;20900444;28;20228;-41
2023/12/19 06:49:30;;;;;;;98.05;72.00;;;;;;;21.14;58.56;101038.06;20884762;28;20311;-41
2023/12/19 06:59:32;;;;;;;101.55;71.78;;;;;;;;;;20897272;28;20200;-40
2023/12/19 07:09:35;;;;;;;96.03;69.03;;;;;;;20.98;58.76;101031.25;20866427;28;20227;-54
2023/12/19 07:19:37;;;;;;;92.07;64.80;;;;;;;20.97;58.51;101018.28;20892197;28;20610;-41
2023/12/19 07:29:40;;;;;;;83.82;61.45;;;;;;;20.93;59.08;100988.97;20882592;28;20583;-53
2023/12/19 07:39:42;;;;;;;82.60;57.50;;;;;;;20.88;58.86;100975.03;20887875;28;20236;-41
2023/12/19 07:49:45;;;;;;;74.10;56.33;;;;;;;20.84;59.15;100979.69;20885252;28;20243;-40
2023/12/19 07:59:48;;;;;;;72.57;54.28;;;;;;;20.79;59.16;100971.38;20883364;28;20200;-56
2023/12/19 08:09:51;;;;;;;71.88;53.05;;;;;;;20.74;59.07;100977.22;20870124;28;20223;-49
2023/12/19 08:19:52;;;;;;;69.18;49.30;;;;;;;20.71;59.18;100975.06;20887222;28;20212;-40
2023/12/19 08:29:56;;;;;;;65.78;47.75;;;;;;;20.66;59.26;100976.88;20883424;28;20311;-41
2023/12/19 08:39:58;;;;;;;64.13;46.63;;;;;;;20.66;59.41;100976.03;20888846;28;20236;-41
2023/12/19 08:50:01;;;;;;;60.33;43.47;;;;;;;20.59;59.19;100973.75;20883749;28;20753;-41
2023/12/19 09:00:04;;;;;;;55.15;41.33;;;;;;;20.60;59.40;100961.25;20882480;28;20193;-44
2023/12/19 09:10:08;;;;;;;54.20;40.85;;;;;;;20.56;59.89;100931.97;20878319;28;20231;-40
2023/12/19 09:20:10;;;;;;;53.22;39.58;;;;;;;20.53;59.57;100932.63;20886946;28;20287;-40
2023/12/19 09:30:15;;;;;;;50.47;37.72;;;;;;;20.51;59.66;100928.50;20870099;28;20221;-42
2023/12/19 09:40:19;;;;;;;48.55;36.50;;;;;;;20.48;59.60;100910.22;20879493;28;20220;-41
2023/12/19 09:50:23;;;;;;;46.92;34.72;;;;;;;20.46;59.96;100900.41;20866714;28;20262;-40
2023/12/19 10:00:25;;;;;;;45.83;34.85;;;;;;;20.43;60.12;100899.06;20848612;28;20283;-41
2023/12/19 10:10:49;;;;;;;38.38;30.63;;;;;;;20.42;59.84;100886.09;20862959;28;20635;-39
2023/12/19 10:21:03;;;;;;;37.92;29.30;;;;;;;20.40;59.92;100874.28;20857008;28;20580;-40
2023/12/19 10:31:12;;;;;;;39.85;29.65;;;;;;;20.38;60.03;100870.16;20851305;28;20314;-41
2023/12/19 10:41:22;;;;;;;37.05;28.40;;;;;;;20.35;60.03;100832.03;20871464;28;20819;-52
2023/12/19 10:51:45;;;;;;;35.92;27.80;;;;;;;20.33;60.00;100806.09;20870689;28;20743;-41
2023/12/19 11:01:48;;;;;;;34.30;26.80;;;;;;;20.34;60.28;100790.81;20894805;28;20415;-41
2023/12/19 11:11:52;;;;;;;34.05;25.63;;;;;;;20.33;60.10;100789.16;20892432;28;20209;-53
2023/12/19 11:22:00;;;;;;;29.27;23.38;;;;;;;20.31;60.31;100768.88;20883324;28;20231;-41
2023/12/19 11:32:39;;;;;;;29.85;22.83;;;;;;;20.30;60.07;100739.75;20890604;28;20850;-41
2023/12/19 11:42:44;;;;;;;28.92;21.73;;;;;;;20.29;60.17;100735.28;20884434;28;20681;-39
2023/12/19 11:52:52;;;;;;;27.63;21.20;;;;;;;20.29;60.02;100715.50;20892326;28;20296;-51
2023/12/19 12:02:53;;;;;;;25.55;19.83;;;;;;;20.27;59.65;100712.16;20886156;28;20572;-41
2023/12/19 12:12:59;;;;;;;25.10;20.23;;;;;;;20.26;60.01;100693.56;20878776;28;20208;-54
2023/12/19 12:23:01;;;;;;;22.35;17.52;;;;;;;20.22;59.96;100663.50;20882352;28;20266;-41
2023/12/19 12:33:06;;;;;;;22.15;17.55;;;;;;;20.22;60.02;100663.50;20876947;28;20307;-42
2023/12/19 12:43:37;;;;;;;22.23;16.77;;;;;;;20.22;60.08;100635.25;20879588;28;20721;-43
2023/12/19 12:53:40;;;;;;;22.33;16.75;;;;;;;20.20;60.19;100620.63;20870508;28;20204;-42
2023/12/19 13:03:42;;;;;;;20.48;16.02;;;;;;;20.18;60.00;100595.53;20875742;28;20223;-41
2023/12/19 13:13:45;;;;;;;18.00;14.88;;;;;;;20.18;59.90;100577.72;20878394;28;20188;-48
2023/12/19 13:23:46;;;;;;;18.60;14.77;;;;;;;20.15;60.03;100573.59;20879828;28;20215;-47
2023/12/19 13:33:50;;;;;;;17.52;14.25;;;;;;;20.13;60.02;100553.31;20879772;28;20575;-40
2023/12/19 13:43:51;;;;;;;17.00;13.07;;;;;;;20.14;60.04;100554.16;20881809;28;20235;-42
2023/12/19 13:53:55;;;;;;;16.95;12.98;;;;;;;20.13;59.80;100533.53;20882104;28;20548;-41
2023/12/19 14:03:56;;;;;;;17.13;13.15;;;;;;;20.11;59.93;100521.78;20896478;28;20228;-58
2023/12/19 14:13:59;;;;;;;14.15;12.02;;;;;;;20.11;59.96;100532.25;20885745;28;20199;-54
2023/12/19 14:24:01;;;;;;;15.95;12.80;;;;;;;20.12;60.20;100528.25;20892785;28;20224;-56
2023/12/19 14:34:04;;;;;;;15.88;11.88;;;;;;;20.36;59.11;100514.31;20898943;28;20535;-55
2023/12/19 14:44:06;;;;;;;14.88;11.18;;;;;;;20.59;58.51;100498.66;20896884;28;20336;-39
2023/12/19 14:54:09;;;;;;;12.65;10.77;;;;;;;20.68;57.90;100475.97;20889024;28;20278;-40
2023/12/19 15:04:11;;;;;;;12.38;10.38;;;;;;;20.71;58.04;100468.78;20890579;28;20219;-41
2023/12/19 15:14:14;;;;;;;13.55;10.50;;;;;;;20.73;58.03;100463.63;20894394;28;20548;-42
2023/12/19 15:24:16;;;;;;;13.65;9.30;;;;;;;20.71;57.96;100452.66;20895710;28;20255;-41
2023/12/19 15:34:19;;;;;;;12.90;9.40;;;;;;;20.69;57.84;100438.84;20892769;28;20199;-41
2023/12/19 15:44:21;;;;;;;13.02;9.32;;;;;;;20.69;57.69;100430.38;20888213;28;20228;-41
2023/12/19 15:54:25;;;;;;;12.95;8.40;;;;;;;20.66;58.23;100419.75;20894073;28;20192;-41
2023/12/19 16:04:26;;;;;;;16.05;10.50;;;;;;;20.80;57.57;100407.31;20889674;28;20638;-40
2023/12/19 16:14:30;;;;;;;13.57;10.45;;;;;;;21.26;56.51;100395.66;20844963;28;20315;-42
2023/12/19 16:24:33;;;;;;;12.82;9.10;;;;;;;21.57;56.17;100402.72;20897285;28;20226;-53
2023/12/19 16:34:36;;;;;;;11.45;8.68;;;;;;;21.74;56.37;100377.00;20882570;28;20207;-43
2023/12/19 16:44:38;;;;;;;25.23;16.27;;;;;;;21.90;56.80;100366.56;20884887;28;20224;-41
2023/12/19 16:54:41;;;;;;;71.28;43.45;;;;;;;22.05;57.50;100357.38;20899617;28;20200;-41
2023/12/19 17:04:43;;;;;;;83.47;53.63;;;;;;;22.16;57.54;100362.53;20853285;28;20307;-55
2023/12/19 17:14:46;;;;;;;157.52;95.25;;;;;;;22.24;57.74;100361.53;20854007;28;20215;-41
2023/12/19 17:24:48;;;;;;;143.55;91.22;;;;;;;22.31;58.19;100358.94;20828228;28;20238;-42
2023/12/19 17:34:52;;;;;;;224.75;139.50;;;;;;;22.48;57.79;100340.75;20854447;28;20204;-43
2023/12/19 17:44:56;;;;;;;240.18;147.13;;;;;;;22.55;58.06;100338.97;20868228;28;20228;-42
2023/12/19 17:54:59;;;;;;;292.15;188.30;;;;;;;22.59;57.56;100341.91;20889113;28;20207;-41
2023/12/19 18:05:01;;;;;;;264.40;168.43;;;;;;;22.69;57.52;100341.38;20890498;28;20226;-41
2023/12/19 18:15:06;;;;;;;234.77;148.07;;;;;;;22.74;57.75;100326.91;20870307;28;20195;-39
2023/12/19 18:25:08;;;;;;;195.43;123.50;;;;;;;22.77;57.09;100332.72;20888173;28;20308;-50
2023/12/19 18:35:12;;;;;;;234.93;150.82;;;;;;;22.82;57.10;100336.47;20860637;28;20207;-41
2023/12/19 18:45:13;;;;;;;242.27;156.98;;;;;;;22.51;56.32;100340.03;20879341;28;20224;-48
2023/12/19 18:55:17;;;;;;;225.35;146.18;;;;;;;22.36;56.47;100333.97;20881565;28;20207;-41
2023/12/19 19:05:19;;;;;;;333.83;232.10;;;;;;;22.38;57.33;100353.44;20894330;28;20216;-45
2023/12/19 19:15:23;;;;;;;306.90;212.25;;;;;;;22.40;56.87;100345.41;20900888;28;20202;-44
2023/12/19 19:25:24;;;;;;;270.25;180.60;;;;;;;22.42;56.90;100351.56;20879241;28;20225;-53
2023/12/19 19:35:27;;;;;;;345.80;244.20;;;;;;;22.54;57.23;100351.50;20806997;28;20228;-53
2023/12/19 19:45:29;;;;;;;232.93;156.52;;;;;;;22.73;57.74;100342.28;20868086;28;20227;-50
2023/12/19 19:55:33;;;;;;;158.98;106.40;;;;;;;22.77;58.73;100344.06;20890907;28;20195;-42
2023/12/19 20:05:34;;;;;;;113.55;75.35;;;;;;;22.86;57.93;100341.03;20889812;28;20230;-45
2023/12/19 20:15:37;;;;;;;210.48;140.30;;;;;;;22.94;57.32;100353.41;20840200;28;20352;-50
2023/12/19 20:25:39;;;;;;;170.40;116.60;;;;;;;22.97;57.12;100344.19;20873399;28;20235;-41
2023/12/19 20:35:42;;;;;;;114.00;80.82;;;;;;;22.97;57.03;100349.84;20881248;28;20311;-50
2023/12/19 20:45:46;;;;;;;160.77;109.05;;;;;;;22.81;57.42;100344.16;20827959;28;20526;-42
2023/12/19 20:55:49;;;;;;;163.07;110.90;;;;;;;22.65;57.83;100358.28;20879681;28;20558;-46
2023/12/19 21:05:51;;;;;;;164.73;112.07;;;;;;;22.57;57.90;100356.44;20873747;28;20773;-41
2023/12/19 21:15:57;;;;;;;159.93;106.95;;;;;;;22.59;58.17;100354.03;20872423;28;20974;-39
2023/12/19 21:25:59;;;;;;;150.18;100.40;;;;;;;22.63;58.22;100354.97;20870730;28;20227;-41
2023/12/19 21:36:02;;;;;;;144.15;98.60;;;;;;;22.65;58.21;100341.25;20865557;28;20207;-39
2023/12/19 21:46:05;;;;;;;133.15;91.75;;;;;;;22.63;58.67;100337.97;20882129;28;20522;-43
2023/12/19 21:56:08;;;;;;;129.32;86.90;;;;;;;22.62;58.53;100330.63;20885250;28;20805;-42
2023/12/19 22:06:14;;;;;;;119.18;83.68;;;;;;;22.60;58.51;100327.34;20877190;28;20306;-43
2023/12/19 22:16:21;;;;;;;110.72;75.60;;;;;;;22.63;58.96;100326.63;20870209;28;20201;-49
2023/12/19 22:26:22;;;;;;;106.57;73.05;;;;;;;22.63;59.57;100320.94;20876171;28;20310;-40
2023/12/19 22:36:26;;;;;;;100.15;68.30;;;;;;;22.65;59.53;100309.22;20887171;28;20202;-39
2023/12/19 22:46:28;;;;;;;91.40;62.67;;;;;;;22.58;58.96;100304.22;20883370;28;20285;-39
2023/12/19 22:56:31;;;;;;;83.93;58.53;;;;;;;22.59;58.88;100313.53;20902030;28;20212;-39
2023/12/19 23:06:33;;;;;;;81.10;58.75;;;;;;;22.56;59.53;100306.56;20884879;28;20224;-40
2023/12/19 23:16:36;;;;;;;79.18;55.65;;;;;;;22.57;59.35;100308.22;20887274;28;20547;-39
2023/12/19 23:26:38;;;;;;;72.32;51.72;;;;;;;22.62;59.41;100307.94;20885001;28;20330;-39
2023/12/19 23:36:41;;;;;;;70.45;50.28;;;;;;;22.62;58.66;100290.91;20900275;28;20591;-47
2023/12/19 23:46:43;;;;;;;68.78;48.50;;;;;;;22.61;58.81;100306.28;20906845;28;20903;-38
2023/12/19 23:56:46;;;;;;;64.90;46.83;;;;;;;22.63;58.66;100305.94;20908124;28;20191;-38
